Sundridge, Canada
Current Conditions -  °F | °C
As of 2:00 AM on Friday 31 Oct 2014 (Local Time) from CYYB Reporting Station
Overcast Overcast  
Wind Chill: 23°   Ceiling: 13000
Heat Index: 30°   Visibility: 9mi
Dew Point: 27°   Wind: 7mph
Humidity: 86%   Direction: 70°ENE
Pressure: 29.97"   Gusts: NA
Location:  45.77°N, 79.4°W
Report Text: CYYB 310600Z AUTO 07006KT 9SM FEW055 OVC130 M01/M03 A2997 RMK SLP165
Loading
Personal Weather Stations






























Interactive Weather Map
Tropical Storm Tracking
New forecast layout! Learn more

10-Day Weather Forecast

Advertisements
Track Severe Weather on mobile